Terminal Aerodrome Forecast
Issued by NWS

Current Version | Previous Version | Text Only | Print | Product List | Glossary Off
Versions: 1 2 3 4 5 6 7 8 9 10 11 12 13 14 15 16 17 18 19 20 21 22

004
FTUS41 KRLX 261520 AAA
TAFCKB
TAF AMD
KCKB 261520Z 2615/2712 19005KT P6SM SCT100
     FM262300 22004KT P6SM SCT045
     FM270800 00000KT P6SM SCT080
     FM270900 00000KT 5SM BR SCT080=

USA.gov is the U.S. government's official web portal to all federal, state and local government web resources and services.